Moratuwa, Sri Lanka
Current Conditions -  °F | °C
As of 9:10 AM on Sunday 23 Nov 2014 (Local Time) from VCBI Reporting Station
Overcast Overcast  
Wind Chill: 77°   Ceiling: 1600
Heat Index: 78°   Visibility: 6mi
Dew Point: 73°   Wind: 7mph
Humidity: 89%   Direction: 120°ESE
Pressure: 29.88"   Gusts: NA
Location:  6.81°N, 79.88°E
Report Text: VCBI 230310Z 12006KT 9000 BKN016 OVC100 25/23 Q1012 NOSIG
Loading
Personal Weather Stations






























Interactive Weather Map New forecast layout! Learn more

10-Day Weather Forecast

Advertisements
Track Severe Weather on mobile